sensor_id;sensor_type;location;lat;lon;timestamp;P1;durP1;ratioP1;P2;durP2;ratioP2
50968;SDS011;36982;51.474;7.228;2022-10-16T00:00:34;3.83;;;2.30;;
50968;SDS011;36982;51.474;7.228;2022-10-16T00:03:01;3.40;;;1.93;;
50968;SDS011;36982;51.474;7.228;2022-10-16T00:05:27;4.57;;;2.47;;
50968;SDS011;36982;51.474;7.228;2022-10-16T00:10:45;5.87;;;2.30;;
50968;SDS011;36982;51.474;7.228;2022-10-16T00:13:11;5.57;;;2.77;;
50968;SDS011;36982;51.474;7.228;2022-10-16T00:15:36;3.13;;;2.07;;
50968;SDS011;36982;51.474;7.228;2022-10-16T00:18:04;5.37;;;2.03;;
50968;SDS011;36982;51.474;7.228;2022-10-16T00:20:30;4.57;;;2.17;;
50968;SDS011;36982;51.474;7.228;2022-10-16T00:22:59;6.27;;;2.27;;
50968;SDS011;36982;51.474;7.228;2022-10-16T00:25:24;5.80;;;2.30;;
50968;SDS011;36982;51.474;7.228;2022-10-16T00:27:50;3.93;;;2.47;;
50968;SDS011;36982;51.474;7.228;2022-10-16T00:30:16;4.00;;;2.00;;
50968;SDS011;36982;51.474;7.228;2022-10-16T00:32:41;4.40;;;2.20;;
50968;SDS011;36982;51.474;7.228;2022-10-16T00:35:07;2.87;;;1.83;;
50968;SDS011;36982;51.474;7.228;2022-10-16T00:37:33;4.17;;;2.03;;
50968;SDS011;36982;51.474;7.228;2022-10-16T00:39:58;3.80;;;1.90;;
50968;SDS011;36982;51.474;7.228;2022-10-16T00:42:24;4.60;;;2.07;;
50968;SDS011;36982;51.474;7.228;2022-10-16T00:44:51;2.60;;;1.87;;
50968;SDS011;36982;51.474;7.228;2022-10-16T00:49:57;3.20;;;1.70;;
50968;SDS011;36982;51.474;7.228;2022-10-16T00:52:27;3.70;;;2.27;;
50968;SDS011;36982;51.474;7.228;2022-10-16T00:54:53;2.77;;;2.20;;
50968;SDS011;36982;51.474;7.228;2022-10-16T00:57:20;2.33;;;1.70;;
50968;SDS011;36982;51.474;7.228;2022-10-16T00:59:46;4.27;;;1.60;;
50968;SDS011;36982;51.474;7.228;2022-10-16T01:02:13;3.37;;;1.90;;
50968;SDS011;36982;51.474;7.228;2022-10-16T01:04:42;3.17;;;1.50;;
50968;SDS011;36982;51.474;7.228;2022-10-16T01:09:54;2.53;;;1.70;;
50968;SDS011;36982;51.474;7.228;2022-10-16T01:18:19;3.37;;;1.50;;
50968;SDS011;36982;51.474;7.228;2022-10-16T01:21:06;2.90;;;1.40;;
50968;SDS011;36982;51.474;7.228;2022-10-16T01:29:34;3.07;;;1.60;;
50968;SDS011;36982;51.474;7.228;2022-10-16T01:32:10;1.80;;;1.20;;
50968;SDS011;36982;51.474;7.228;2022-10-16T01:34:50;4.13;;;1.50;;
50968;SDS011;36982;51.474;7.228;2022-10-16T01:37:33;1.43;;;1.10;;
50968;SDS011;36982;51.474;7.228;2022-10-16T01:40:05;2.73;;;1.50;;
50968;SDS011;36982;51.474;7.228;2022-10-16T01:42:35;3.10;;;1.40;;
50968;SDS011;36982;51.474;7.228;2022-10-16T01:45:04;2.10;;;1.37;;
50968;SDS011;36982;51.474;7.228;2022-10-16T01:47:32;4.50;;;1.80;;
50968;SDS011;36982;51.474;7.228;2022-10-16T01:50:00;3.57;;;1.40;;
50968;SDS011;36982;51.474;7.228;2022-10-16T01:52:29;3.20;;;1.50;;
50968;SDS011;36982;51.474;7.228;2022-10-16T01:54:57;2.70;;;1.50;;
50968;SDS011;36982;51.474;7.228;2022-10-16T01:57:24;2.13;;;1.53;;
50968;SDS011;36982;51.474;7.228;2022-10-16T01:59:54;4.90;;;1.80;;
50968;SDS011;36982;51.474;7.228;2022-10-16T02:02:23;3.50;;;1.50;;
50968;SDS011;36982;51.474;7.228;2022-10-16T02:04:54;2.93;;;1.50;;
50968;SDS011;36982;51.474;7.228;2022-10-16T02:07:33;1.97;;;1.40;;
50968;SDS011;36982;51.474;7.228;2022-10-16T02:09:59;3.03;;;1.80;;
50968;SDS011;36982;51.474;7.228;2022-10-16T02:14:52;4.27;;;1.53;;
50968;SDS011;36982;51.474;7.228;2022-10-16T02:17:18;1.90;;;1.43;;
50968;SDS011;36982;51.474;7.228;2022-10-16T02:19:45;3.07;;;1.63;;
50968;SDS011;36982;51.474;7.228;2022-10-16T02:22:18;4.90;;;1.50;;
50968;SDS011;36982;51.474;7.228;2022-10-16T02:27:47;1.67;;;1.53;;
50968;SDS011;36982;51.474;7.228;2022-10-16T02:30:36;1.90;;;1.50;;
50968;SDS011;36982;51.474;7.228;2022-10-16T02:33:13;2.90;;;1.60;;
50968;SDS011;36982;51.474;7.228;2022-10-16T02:35:41;1.87;;;1.60;;
50968;SDS011;36982;51.474;7.228;2022-10-16T02:38:08;2.90;;;1.40;;
50968;SDS011;36982;51.474;7.228;2022-10-16T02:40:34;3.63;;;1.20;;
50968;SDS011;36982;51.474;7.228;2022-10-16T02:43:02;4.07;;;1.37;;
50968;SDS011;36982;51.474;7.228;2022-10-16T02:45:29;1.93;;;1.50;;
50968;SDS011;36982;51.474;7.228;2022-10-16T02:47:54;1.77;;;1.30;;
50968;SDS011;36982;51.474;7.228;2022-10-16T02:50:20;2.40;;;1.30;;
50968;SDS011;36982;51.474;7.228;2022-10-16T02:52:46;4.53;;;1.33;;
50968;SDS011;36982;51.474;7.228;2022-10-16T02:55:11;2.77;;;1.33;;
50968;SDS011;36982;51.474;7.228;2022-10-16T02:57:37;2.53;;;1.30;;
50968;SDS011;36982;51.474;7.228;2022-10-16T03:00:05;4.53;;;1.37;;
50968;SDS011;36982;51.474;7.228;2022-10-16T03:02:34;2.77;;;1.30;;
50968;SDS011;36982;51.474;7.228;2022-10-16T03:05:00;1.83;;;1.20;;
50968;SDS011;36982;51.474;7.228;2022-10-16T03:07:26;2.83;;;1.30;;
50968;SDS011;36982;51.474;7.228;2022-10-16T03:09:51;1.63;;;1.10;;
50968;SDS011;36982;51.474;7.228;2022-10-16T03:12:17;1.33;;;1.03;;
50968;SDS011;36982;51.474;7.228;2022-10-16T03:14:42;1.70;;;1.20;;
50968;SDS011;36982;51.474;7.228;2022-10-16T03:17:08;1.93;;;1.20;;
50968;SDS011;36982;51.474;7.228;2022-10-16T03:19:33;2.40;;;1.07;;
50968;SDS011;36982;51.474;7.228;2022-10-16T03:22:00;2.63;;;1.20;;
50968;SDS011;36982;51.474;7.228;2022-10-16T03:24:26;3.23;;;1.40;;
50968;SDS011;36982;51.474;7.228;2022-10-16T03:26:52;1.20;;;1.00;;
50968;SDS011;36982;51.474;7.228;2022-10-16T03:29:17;1.50;;;0.90;;
50968;SDS011;36982;51.474;7.228;2022-10-16T03:31:43;1.33;;;1.00;;
50968;SDS011;36982;51.474;7.228;2022-10-16T03:34:08;1.83;;;0.93;;
50968;SDS011;36982;51.474;7.228;2022-10-16T03:36:34;1.53;;;0.93;;
50968;SDS011;36982;51.474;7.228;2022-10-16T03:39:00;2.90;;;1.03;;
50968;SDS011;36982;51.474;7.228;2022-10-16T03:41:25;2.63;;;1.03;;
50968;SDS011;36982;51.474;7.228;2022-10-16T03:43:51;1.13;;;1.00;;
50968;SDS011;36982;51.474;7.228;2022-10-16T03:46:16;1.23;;;1.00;;
50968;SDS011;36982;51.474;7.228;2022-10-16T03:48:42;1.40;;;0.90;;
50968;SDS011;36982;51.474;7.228;2022-10-16T03:51:08;3.23;;;0.90;;
50968;SDS011;36982;51.474;7.228;2022-10-16T03:53:33;1.50;;;1.00;;
50968;SDS011;36982;51.474;7.228;2022-10-16T03:55:59;1.73;;;1.00;;
50968;SDS011;36982;51.474;7.228;2022-10-16T03:58:25;1.37;;;0.70;;
50968;SDS011;36982;51.474;7.228;2022-10-16T04:00:50;2.27;;;1.13;;
50968;SDS011;36982;51.474;7.228;2022-10-16T04:03:16;1.97;;;0.90;;
50968;SDS011;36982;51.474;7.228;2022-10-16T04:05:43;2.00;;;0.90;;
50968;SDS011;36982;51.474;7.228;2022-10-16T04:08:09;1.80;;;0.87;;
50968;SDS011;36982;51.474;7.228;2022-10-16T04:10:35;2.10;;;0.97;;
50968;SDS011;36982;51.474;7.228;2022-10-16T04:13:00;1.93;;;1.00;;
50968;SDS011;36982;51.474;7.228;2022-10-16T04:15:26;1.60;;;1.00;;
50968;SDS011;36982;51.474;7.228;2022-10-16T04:17:51;3.23;;;1.10;;
50968;SDS011;36982;51.474;7.228;2022-10-16T04:20:17;3.30;;;0.83;;
50968;SDS011;36982;51.474;7.228;2022-10-16T04:22:43;1.20;;;0.90;;
50968;SDS011;36982;51.474;7.228;2022-10-16T04:25:09;1.40;;;1.00;;
50968;SDS011;36982;51.474;7.228;2022-10-16T04:27:34;2.97;;;0.97;;
50968;SDS011;36982;51.474;7.228;2022-10-16T04:30:00;2.33;;;0.80;;
50968;SDS011;36982;51.474;7.228;2022-10-16T04:32:26;1.13;;;0.80;;
50968;SDS011;36982;51.474;7.228;2022-10-16T04:34:52;1.90;;;0.80;;
50968;SDS011;36982;51.474;7.228;2022-10-16T04:37:18;1.73;;;1.00;;
50968;SDS011;36982;51.474;7.228;2022-10-16T04:39:43;1.57;;;0.90;;
50968;SDS011;36982;51.474;7.228;2022-10-16T04:42:09;1.10;;;0.90;;
50968;SDS011;36982;51.474;7.228;2022-10-16T04:44:35;0.80;;;0.80;;
50968;SDS011;36982;51.474;7.228;2022-10-16T04:47:01;1.17;;;1.00;;
50968;SDS011;36982;51.474;7.228;2022-10-16T04:49:27;3.43;;;1.00;;
50968;SDS011;36982;51.474;7.228;2022-10-16T04:51:52;1.10;;;0.87;;
50968;SDS011;36982;51.474;7.228;2022-10-16T04:54:18;1.53;;;1.00;;
50968;SDS011;36982;51.474;7.228;2022-10-16T04:56:44;3.30;;;0.97;;
50968;SDS011;36982;51.474;7.228;2022-10-16T04:59:13;2.50;;;0.90;;
50968;SDS011;36982;51.474;7.228;2022-10-16T05:01:39;1.63;;;0.70;;
50968;SDS011;36982;51.474;7.228;2022-10-16T05:04:05;0.80;;;0.70;;
50968;SDS011;36982;51.474;7.228;2022-10-16T05:06:30;1.10;;;0.80;;
50968;SDS011;36982;51.474;7.228;2022-10-16T05:08:56;0.83;;;0.80;;
50968;SDS011;36982;51.474;7.228;2022-10-16T05:11:22;4.10;;;1.00;;
50968;SDS011;36982;51.474;7.228;2022-10-16T05:13:47;1.47;;;0.93;;
50968;SDS011;36982;51.474;7.228;2022-10-16T05:16:13;3.73;;;1.47;;
50968;SDS011;36982;51.474;7.228;2022-10-16T05:18:38;1.73;;;1.00;;
50968;SDS011;36982;51.474;7.228;2022-10-16T05:21:04;2.27;;;1.07;;
50968;SDS011;36982;51.474;7.228;2022-10-16T05:23:30;2.30;;;0.80;;
50968;SDS011;36982;51.474;7.228;2022-10-16T05:25:57;1.07;;;0.90;;
50968;SDS011;36982;51.474;7.228;2022-10-16T05:28:27;2.37;;;1.20;;
50968;SDS011;36982;51.474;7.228;2022-10-16T05:30:54;1.50;;;1.10;;
50968;SDS011;36982;51.474;7.228;2022-10-16T05:33:20;1.63;;;0.80;;
50968;SDS011;36982;51.474;7.228;2022-10-16T05:35:47;1.17;;;0.90;;
50968;SDS011;36982;51.474;7.228;2022-10-16T05:38:13;2.50;;;0.80;;
50968;SDS011;36982;51.474;7.228;2022-10-16T05:40:38;3.00;;;1.10;;
50968;SDS011;36982;51.474;7.228;2022-10-16T05:43:04;1.50;;;1.10;;
50968;SDS011;36982;51.474;7.228;2022-10-16T05:45:30;2.00;;;0.90;;
50968;SDS011;36982;51.474;7.228;2022-10-16T05:47:55;1.30;;;1.00;;
50968;SDS011;36982;51.474;7.228;2022-10-16T05:50:21;1.23;;;0.87;;
50968;SDS011;36982;51.474;7.228;2022-10-16T05:52:46;3.10;;;1.40;;
50968;SDS011;36982;51.474;7.228;2022-10-16T05:55:12;2.40;;;0.80;;
50968;SDS011;36982;51.474;7.228;2022-10-16T05:57:38;0.87;;;0.83;;
50968;SDS011;36982;51.474;7.228;2022-10-16T06:00:04;1.23;;;0.90;;
50968;SDS011;36982;51.474;7.228;2022-10-16T06:02:30;2.60;;;1.00;;
50968;SDS011;36982;51.474;7.228;2022-10-16T06:04:56;3.67;;;1.00;;
50968;SDS011;36982;51.474;7.228;2022-10-16T06:07:21;1.50;;;1.00;;
50968;SDS011;36982;51.474;7.228;2022-10-16T06:09:48;2.73;;;1.20;;
50968;SDS011;36982;51.474;7.228;2022-10-16T06:12:15;1.90;;;0.90;;
50968;SDS011;36982;51.474;7.228;2022-10-16T06:14:41;1.53;;;0.90;;
50968;SDS011;36982;51.474;7.228;2022-10-16T06:17:06;1.10;;;0.87;;
50968;SDS011;36982;51.474;7.228;2022-10-16T06:19:32;1.80;;;1.20;;
50968;SDS011;36982;51.474;7.228;2022-10-16T06:21:57;1.10;;;1.00;;
50968;SDS011;36982;51.474;7.228;2022-10-16T06:24:23;2.23;;;1.17;;
50968;SDS011;36982;51.474;7.228;2022-10-16T06:26:49;1.23;;;1.03;;
50968;SDS011;36982;51.474;7.228;2022-10-16T06:29:15;1.40;;;1.10;;
50968;SDS011;36982;51.474;7.228;2022-10-16T06:31:41;2.00;;;1.10;;
50968;SDS011;36982;51.474;7.228;2022-10-16T06:34:08;1.07;;;0.97;;
50968;SDS011;36982;51.474;7.228;2022-10-16T06:36:35;1.20;;;0.90;;
50968;SDS011;36982;51.474;7.228;2022-10-16T06:39:02;2.30;;;1.17;;
50968;SDS011;36982;51.474;7.228;2022-10-16T06:41:28;2.27;;;1.10;;
50968;SDS011;36982;51.474;7.228;2022-10-16T06:43:53;1.37;;;1.20;;
50968;SDS011;36982;51.474;7.228;2022-10-16T06:46:20;2.27;;;0.90;;
50968;SDS011;36982;51.474;7.228;2022-10-16T06:48:48;2.97;;;1.00;;
50968;SDS011;36982;51.474;7.228;2022-10-16T06:51:15;2.13;;;1.30;;
50968;SDS011;36982;51.474;7.228;2022-10-16T06:53:43;5.37;;;1.83;;
50968;SDS011;36982;51.474;7.228;2022-10-16T06:56:11;1.50;;;1.07;;
50968;SDS011;36982;51.474;7.228;2022-10-16T06:58:37;1.97;;;1.30;;
50968;SDS011;36982;51.474;7.228;2022-10-16T07:01:03;1.40;;;1.30;;
50968;SDS011;36982;51.474;7.228;2022-10-16T07:03:29;1.47;;;1.00;;
50968;SDS011;36982;51.474;7.228;2022-10-16T07:05:55;2.27;;;1.10;;
50968;SDS011;36982;51.474;7.228;2022-10-16T07:08:21;1.67;;;1.20;;
50968;SDS011;36982;51.474;7.228;2022-10-16T07:10:46;1.20;;;1.10;;
50968;SDS011;36982;51.474;7.228;2022-10-16T07:13:12;1.70;;;1.10;;
50968;SDS011;36982;51.474;7.228;2022-10-16T07:15:39;1.47;;;1.13;;
50968;SDS011;36982;51.474;7.228;2022-10-16T07:18:05;2.70;;;1.33;;
50968;SDS011;36982;51.474;7.228;2022-10-16T07:20:30;1.70;;;1.30;;
50968;SDS011;36982;51.474;7.228;2022-10-16T07:22:56;1.40;;;1.10;;
50968;SDS011;36982;51.474;7.228;2022-10-16T07:25:21;5.23;;;1.40;;
50968;SDS011;36982;51.474;7.228;2022-10-16T07:27:47;1.73;;;1.30;;
50968;SDS011;36982;51.474;7.228;2022-10-16T07:30:13;5.90;;;1.33;;
50968;SDS011;36982;51.474;7.228;2022-10-16T07:32:38;4.67;;;1.57;;
50968;SDS011;36982;51.474;7.228;2022-10-16T07:35:04;2.90;;;1.17;;
50968;SDS011;36982;51.474;7.228;2022-10-16T07:37:30;1.63;;;1.10;;
50968;SDS011;36982;51.474;7.228;2022-10-16T07:39:56;1.93;;;1.17;;
50968;SDS011;36982;51.474;7.228;2022-10-16T07:42:21;1.87;;;1.30;;
50968;SDS011;36982;51.474;7.228;2022-10-16T07:44:47;4.23;;;1.30;;
50968;SDS011;36982;51.474;7.228;2022-10-16T07:47:12;2.37;;;1.40;;
50968;SDS011;36982;51.474;7.228;2022-10-16T07:49:38;1.63;;;1.30;;
50968;SDS011;36982;51.474;7.228;2022-10-16T07:52:04;2.53;;;1.10;;
50968;SDS011;36982;51.474;7.228;2022-10-16T07:54:29;4.13;;;1.53;;
50968;SDS011;36982;51.474;7.228;2022-10-16T07:56:55;2.10;;;1.27;;
50968;SDS011;36982;51.474;7.228;2022-10-16T07:59:20;1.70;;;1.00;;
50968;SDS011;36982;51.474;7.228;2022-10-16T08:01:46;2.63;;;1.40;;
50968;SDS011;36982;51.474;7.228;2022-10-16T08:04:13;1.60;;;1.43;;
50968;SDS011;36982;51.474;7.228;2022-10-16T08:06:39;3.07;;;2.07;;
50968;SDS011;36982;51.474;7.228;2022-10-16T08:09:05;2.10;;;1.50;;
50968;SDS011;36982;51.474;7.228;2022-10-16T08:11:32;1.80;;;1.20;;
50968;SDS011;36982;51.474;7.228;2022-10-16T08:13:58;6.00;;;1.30;;
50968;SDS011;36982;51.474;7.228;2022-10-16T08:16:23;5.50;;;1.20;;
50968;SDS011;36982;51.474;7.228;2022-10-16T08:18:49;3.03;;;1.37;;
50968;SDS011;36982;51.474;7.228;2022-10-16T08:21:17;5.77;;;1.37;;
50968;SDS011;36982;51.474;7.228;2022-10-16T08:23:44;3.03;;;1.00;;
50968;SDS011;36982;51.474;7.228;2022-10-16T08:26:10;5.07;;;1.47;;
50968;SDS011;36982;51.474;7.228;2022-10-16T08:28:37;3.00;;;1.77;;
50968;SDS011;36982;51.474;7.228;2022-10-16T08:31:11;3.70;;;1.70;;
50968;SDS011;36982;51.474;7.228;2022-10-16T08:33:39;2.07;;;1.40;;
50968;SDS011;36982;51.474;7.228;2022-10-16T08:36:06;5.70;;;3.20;;
50968;SDS011;36982;51.474;7.228;2022-10-16T08:38:32;3.50;;;1.60;;
50968;SDS011;36982;51.474;7.228;2022-10-16T08:41:09;2.07;;;0.93;;
50968;SDS011;36982;51.474;7.228;2022-10-16T08:49:46;2.23;;;0.97;;
50968;SDS011;36982;51.474;7.228;2022-10-16T08:52:21;3.57;;;0.83;;
50968;SDS011;36982;51.474;7.228;2022-10-16T08:54:49;1.63;;;0.83;;
50968;SDS011;36982;51.474;7.228;2022-10-16T08:57:19;1.90;;;0.97;;
50968;SDS011;36982;51.474;7.228;2022-10-16T08:59:46;2.17;;;0.70;;
50968;SDS011;36982;51.474;7.228;2022-10-16T09:13:23;2.70;;;1.00;;
50968;SDS011;36982;51.474;7.228;2022-10-16T09:16:17;2.23;;;0.90;;
50968;SDS011;36982;51.474;7.228;2022-10-16T09:19:03;2.60;;;1.00;;
50968;SDS011;36982;51.474;7.228;2022-10-16T09:21:40;1.87;;;0.70;;
50968;SDS011;36982;51.474;7.228;2022-10-16T09:24:21;2.83;;;0.93;;
50968;SDS011;36982;51.474;7.228;2022-10-16T09:26:51;2.37;;;1.00;;
50968;SDS011;36982;51.474;7.228;2022-10-16T09:29:17;1.27;;;0.80;;
50968;SDS011;36982;51.474;7.228;2022-10-16T09:31:50;3.33;;;1.33;;
50968;SDS011;36982;51.474;7.228;2022-10-16T09:34:36;2.33;;;0.77;;
50968;SDS011;36982;51.474;7.228;2022-10-16T09:37:09;4.30;;;1.20;;
50968;SDS011;36982;51.474;7.228;2022-10-16T09:39:56;2.70;;;1.17;;
50968;SDS011;36982;51.474;7.228;2022-10-16T09:42:24;3.33;;;0.90;;
50968;SDS011;36982;51.474;7.228;2022-10-16T09:44:56;3.37;;;1.40;;
50968;SDS011;36982;51.474;7.228;2022-10-16T09:47:28;2.20;;;0.90;;
50968;SDS011;36982;51.474;7.228;2022-10-16T09:49:56;2.30;;;1.10;;
50968;SDS011;36982;51.474;7.228;2022-10-16T09:52:31;2.13;;;0.80;;
50968;SDS011;36982;51.474;7.228;2022-10-16T09:54:58;2.33;;;0.70;;
50968;SDS011;36982;51.474;7.228;2022-10-16T09:57:25;2.00;;;1.20;;
50968;SDS011;36982;51.474;7.228;2022-10-16T09:59:52;1.80;;;0.87;;
50968;SDS011;36982;51.474;7.228;2022-10-16T10:02:40;3.37;;;1.30;;
50968;SDS011;36982;51.474;7.228;2022-10-16T10:05:05;3.00;;;1.00;;
50968;SDS011;36982;51.474;7.228;2022-10-16T10:07:44;2.27;;;0.80;;
50968;SDS011;36982;51.474;7.228;2022-10-16T10:10:21;2.73;;;1.17;;
50968;SDS011;36982;51.474;7.228;2022-10-16T10:12:49;1.70;;;0.77;;
50968;SDS011;36982;51.474;7.228;2022-10-16T10:15:14;2.40;;;0.80;;
50968;SDS011;36982;51.474;7.228;2022-10-16T10:17:47;1.53;;;0.57;;
50968;SDS011;36982;51.474;7.228;2022-10-16T10:20:22;1.90;;;1.20;;
50968;SDS011;36982;51.474;7.228;2022-10-16T10:22:48;2.60;;;0.60;;
50968;SDS011;36982;51.474;7.228;2022-10-16T10:30:50;1.47;;;0.50;;
50968;SDS011;36982;51.474;7.228;2022-10-16T10:41:20;2.23;;;0.80;;
50968;SDS011;36982;51.474;7.228;2022-10-16T10:43:59;1.70;;;0.70;;
50968;SDS011;36982;51.474;7.228;2022-10-16T10:46:35;1.53;;;0.80;;
50968;SDS011;36982;51.474;7.228;2022-10-16T10:49:12;2.07;;;0.70;;
50968;SDS011;36982;51.474;7.228;2022-10-16T10:52:00;1.80;;;0.83;;
50968;SDS011;36982;51.474;7.228;2022-10-16T10:54:41;4.10;;;1.40;;
50968;SDS011;36982;51.474;7.228;2022-10-16T10:57:36;2.20;;;0.93;;
50968;SDS011;36982;51.474;7.228;2022-10-16T11:09:02;2.73;;;1.40;;
50968;SDS011;36982;51.474;7.228;2022-10-16T11:14:44;1.20;;;0.73;;
50968;SDS011;36982;51.474;7.228;2022-10-16T11:17:17;2.20;;;0.80;;
50968;SDS011;36982;51.474;7.228;2022-10-16T11:22:48;2.73;;;0.70;;
50968;SDS011;36982;51.474;7.228;2022-10-16T11:25:26;2.40;;;1.00;;
50968;SDS011;36982;51.474;7.228;2022-10-16T11:27:59;1.03;;;0.80;;
50968;SDS011;36982;51.474;7.228;2022-10-16T11:30:53;2.37;;;1.10;;
50968;SDS011;36982;51.474;7.228;2022-10-16T11:33:42;4.33;;;1.70;;
50968;SDS011;36982;51.474;7.228;2022-10-16T11:36:23;4.43;;;2.17;;
50968;SDS011;36982;51.474;7.228;2022-10-16T11:39:17;3.47;;;1.33;;
50968;SDS011;36982;51.474;7.228;2022-10-16T11:41:47;2.35;;;0.95;;
50968;SDS011;36982;51.474;7.228;2022-10-16T11:56:39;1.75;;;0.88;;
50968;SDS011;36982;51.474;7.228;2022-10-16T11:59:13;2.30;;;0.80;;
50968;SDS011;36982;51.474;7.228;2022-10-16T12:02:25;2.97;;;1.05;;
50968;SDS011;36982;51.474;7.228;2022-10-16T12:05:15;2.47;;;0.77;;
50968;SDS011;36982;51.474;7.228;2022-10-16T12:07:53;2.95;;;0.70;;
50968;SDS011;36982;51.474;7.228;2022-10-16T12:10:30;1.65;;;0.70;;
50968;SDS011;36982;51.474;7.228;2022-10-16T12:12:59;4.00;;;1.62;;
50968;SDS011;36982;51.474;7.228;2022-10-16T12:15:25;1.37;;;0.73;;
50968;SDS011;36982;51.474;7.228;2022-10-16T12:17:51;3.03;;;0.83;;
50968;SDS011;36982;51.474;7.228;2022-10-16T12:22:55;1.67;;;0.70;;
50968;SDS011;36982;51.474;7.228;2022-10-16T12:25:28;3.80;;;0.88;;
50968;SDS011;36982;51.474;7.228;2022-10-16T12:28:05;1.90;;;0.80;;
50968;SDS011;36982;51.474;7.228;2022-10-16T12:30:51;2.23;;;0.90;;
50968;SDS011;36982;51.474;7.228;2022-10-16T12:33:28;1.70;;;1.00;;
50968;SDS011;36982;51.474;7.228;2022-10-16T12:35:56;2.42;;;0.90;;
50968;SDS011;36982;51.474;7.228;2022-10-16T12:46:39;1.27;;;0.82;;
50968;SDS011;36982;51.474;7.228;2022-10-16T12:49:50;2.85;;;1.00;;
50968;SDS011;36982;51.474;7.228;2022-10-16T13:07:20;1.10;;;0.60;;
50968;SDS011;36982;51.474;7.228;2022-10-16T13:10:13;0.98;;;0.60;;
50968;SDS011;36982;51.474;7.228;2022-10-16T13:18:19;1.55;;;0.70;;
50968;SDS011;36982;51.474;7.228;2022-10-16T13:21:17;6.93;;;1.67;;
50968;SDS011;36982;51.474;7.228;2022-10-16T13:24:00;1.48;;;0.90;;
50968;SDS011;36982;51.474;7.228;2022-10-16T13:29:20;3.03;;;0.80;;
50968;SDS011;36982;51.474;7.228;2022-10-16T13:31:46;2.10;;;0.80;;
50968;SDS011;36982;51.474;7.228;2022-10-16T13:34:19;3.13;;;0.70;;
50968;SDS011;36982;51.474;7.228;2022-10-16T13:36:48;2.50;;;0.80;;
50968;SDS011;36982;51.474;7.228;2022-10-16T13:42:14;1.27;;;0.70;;
50968;SDS011;36982;51.474;7.228;2022-10-16T13:44:48;1.75;;;0.60;;
50968;SDS011;36982;51.474;7.228;2022-10-16T13:47:17;1.77;;;0.70;;
50968;SDS011;36982;51.474;7.228;2022-10-16T13:49:58;3.15;;;0.62;;
50968;SDS011;36982;51.474;7.228;2022-10-16T13:52:31;2.10;;;1.05;;
50968;SDS011;36982;51.474;7.228;2022-10-16T13:54:57;1.20;;;0.70;;
50968;SDS011;36982;51.474;7.228;2022-10-16T13:57:23;1.97;;;0.80;;
50968;SDS011;36982;51.474;7.228;2022-10-16T13:59:50;0.90;;;0.60;;
50968;SDS011;36982;51.474;7.228;2022-10-16T14:05:00;3.62;;;0.90;;
50968;SDS011;36982;51.474;7.228;2022-10-16T14:07:29;2.20;;;0.77;;
50968;SDS011;36982;51.474;7.228;2022-10-16T14:10:00;4.12;;;0.95;;
50968;SDS011;36982;51.474;7.228;2022-10-16T14:12:31;2.50;;;0.93;;
50968;SDS011;36982;51.474;7.228;2022-10-16T14:14:57;1.42;;;0.68;;
50968;SDS011;36982;51.474;7.228;2022-10-16T14:17:26;2.15;;;0.80;;
50968;SDS011;36982;51.474;7.228;2022-10-16T14:19:58;3.03;;;0.65;;
50968;SDS011;36982;51.474;7.228;2022-10-16T14:24:58;3.55;;;1.33;;
50968;SDS011;36982;51.474;7.228;2022-10-16T14:30:20;1.33;;;0.70;;
50968;SDS011;36982;51.474;7.228;2022-10-16T14:33:18;2.47;;;0.77;;
50968;SDS011;36982;51.474;7.228;2022-10-16T14:35:56;2.45;;;0.88;;
50968;SDS011;36982;51.474;7.228;2022-10-16T14:38:26;2.45;;;0.90;;
50968;SDS011;36982;51.474;7.228;2022-10-16T14:40:52;1.33;;;0.80;;
50968;SDS011;36982;51.474;7.228;2022-10-16T14:43:20;3.97;;;0.98;;
50968;SDS011;36982;51.474;7.228;2022-10-16T14:45:53;2.83;;;0.95;;
50968;SDS011;36982;51.474;7.228;2022-10-16T14:48:20;7.05;;;4.62;;
50968;SDS011;36982;51.474;7.228;2022-10-16T14:50:46;3.47;;;2.12;;
50968;SDS011;36982;51.474;7.228;2022-10-16T14:53:12;2.37;;;1.27;;
50968;SDS011;36982;51.474;7.228;2022-10-16T14:55:38;2.78;;;1.17;;
50968;SDS011;36982;51.474;7.228;2022-10-16T15:00:51;1.90;;;1.10;;
50968;SDS011;36982;51.474;7.228;2022-10-16T15:03:16;1.30;;;0.80;;
50968;SDS011;36982;51.474;7.228;2022-10-16T15:05:42;1.55;;;0.90;;
50968;SDS011;36982;51.474;7.228;2022-10-16T15:08:08;4.55;;;1.05;;
50968;SDS011;36982;51.474;7.228;2022-10-16T15:10:35;3.97;;;0.90;;
50968;SDS011;36982;51.474;7.228;2022-10-16T15:13:12;2.55;;;1.00;;
50968;SDS011;36982;51.474;7.228;2022-10-16T15:15:45;2.30;;;1.00;;
50968;SDS011;36982;51.474;7.228;2022-10-16T15:18:12;1.92;;;1.15;;
50968;SDS011;36982;51.474;7.228;2022-10-16T15:20:40;2.70;;;1.08;;
50968;SDS011;36982;51.474;7.228;2022-10-16T15:23:09;1.55;;;1.17;;
50968;SDS011;36982;51.474;7.228;2022-10-16T15:25:40;1.83;;;1.02;;
50968;SDS011;36982;51.474;7.228;2022-10-16T15:28:11;1.60;;;1.00;;
50968;SDS011;36982;51.474;7.228;2022-10-16T15:30:38;1.98;;;1.05;;
50968;SDS011;36982;51.474;7.228;2022-10-16T15:33:05;3.42;;;0.90;;
50968;SDS011;36982;51.474;7.228;2022-10-16T15:35:36;2.53;;;0.90;;
50968;SDS011;36982;51.474;7.228;2022-10-16T15:38:01;1.65;;;1.00;;
50968;SDS011;36982;51.474;7.228;2022-10-16T15:40:27;2.15;;;0.80;;
50968;SDS011;36982;51.474;7.228;2022-10-16T15:42:52;2.58;;;1.00;;
50968;SDS011;36982;51.474;7.228;2022-10-16T15:45:18;3.17;;;1.40;;
50968;SDS011;36982;51.474;7.228;2022-10-16T15:47:44;6.75;;;4.72;;
50968;SDS011;36982;51.474;7.228;2022-10-16T15:50:13;2.95;;;1.85;;
50968;SDS011;36982;51.474;7.228;2022-10-16T15:52:39;2.15;;;1.23;;
50968;SDS011;36982;51.474;7.228;2022-10-16T15:55:06;3.33;;;1.20;;
50968;SDS011;36982;51.474;7.228;2022-10-16T15:57:37;1.87;;;1.17;;
50968;SDS011;36982;51.474;7.228;2022-10-16T16:00:06;2.53;;;1.17;;
50968;SDS011;36982;51.474;7.228;2022-10-16T16:02:32;1.95;;;1.10;;
50968;SDS011;36982;51.474;7.228;2022-10-16T16:04:58;7.53;;;5.40;;
50968;SDS011;36982;51.474;7.228;2022-10-16T16:07:24;3.83;;;2.67;;
50968;SDS011;36982;51.474;7.228;2022-10-16T16:10:04;15.13;;;8.85;;
50968;SDS011;36982;51.474;7.228;2022-10-16T16:12:31;9.38;;;4.30;;
50968;SDS011;36982;51.474;7.228;2022-10-16T16:14:58;24.50;;;16.97;;
50968;SDS011;36982;51.474;7.228;2022-10-16T16:17:24;17.27;;;12.57;;
50968;SDS011;36982;51.474;7.228;2022-10-16T16:19:50;22.20;;;16.40;;
50968;SDS011;36982;51.474;7.228;2022-10-16T16:22:16;12.48;;;8.40;;
50968;SDS011;36982;51.474;7.228;2022-10-16T16:24:41;10.88;;;7.70;;
50968;SDS011;36982;51.474;7.228;2022-10-16T16:27:09;11.07;;;8.63;;
50968;SDS011;36982;51.474;7.228;2022-10-16T16:29:35;19.55;;;12.52;;
50968;SDS011;36982;51.474;7.228;2022-10-16T16:32:00;13.07;;;8.73;;
50968;SDS011;36982;51.474;7.228;2022-10-16T16:34:27;12.50;;;8.63;;
50968;SDS011;36982;51.474;7.228;2022-10-16T16:36:53;9.33;;;6.27;;
50968;SDS011;36982;51.474;7.228;2022-10-16T16:39:20;8.57;;;6.00;;
50968;SDS011;36982;51.474;7.228;2022-10-16T16:41:46;7.35;;;5.50;;
50968;SDS011;36982;51.474;7.228;2022-10-16T16:44:12;9.10;;;5.80;;
50968;SDS011;36982;51.474;7.228;2022-10-16T16:46:38;5.17;;;2.73;;
50968;SDS011;36982;51.474;7.228;2022-10-16T16:49:05;3.73;;;2.00;;
50968;SDS011;36982;51.474;7.228;2022-10-16T16:51:32;4.87;;;2.57;;
50968;SDS011;36982;51.474;7.228;2022-10-16T16:53:58;6.37;;;2.67;;
50968;SDS011;36982;51.474;7.228;2022-10-16T16:56:24;6.80;;;3.37;;
50968;SDS011;36982;51.474;7.228;2022-10-16T16:58:52;10.03;;;4.40;;
50968;SDS011;36982;51.474;7.228;2022-10-16T17:01:19;8.82;;;4.62;;
50968;SDS011;36982;51.474;7.228;2022-10-16T17:03:46;7.60;;;3.80;;
50968;SDS011;36982;51.474;7.228;2022-10-16T17:06:14;6.50;;;3.13;;
50968;SDS011;36982;51.474;7.228;2022-10-16T17:08:40;14.20;;;6.87;;
50968;SDS011;36982;51.474;7.228;2022-10-16T17:11:11;5.53;;;3.50;;